MAPA DE AEROPUERTO

INFORMACIÓN METAR y TAF

METAR FOR LEZG
ADDS - METARS form results

(0008 UTC 29 January 2022)
Data provider http://aviationweather.gov/metar/data/
 
METAR text: LEZG 290000Z 29004KT 260V360 CAVOK 04/M02 Q1034
Conditions at: LEZG (ZARAGOZA (MIL/CI, ES) observed 0000 UTC 29 January 2022
Temperature: 4.0°C (39°F)
Dewpoint: -2.0°C (28°F) [RH = 65%]
Pressure (altimeter): 30.53 inches Hg (1034.0 mb)
Winds: from the WNW (290 degrees) at 5 MPH (4 knots; 2.1 m/s)
Visibility: 6 or more miles (10+ km)
Ceiling: ceiling and visibility are OK
Clouds: unknown
Weather: no significant weather observed at this time

METAR text: LEZG 282330Z 30005KT CAVOK 04/M02 Q1033
Conditions at: LEZG (ZARAGOZA (MIL/CI, ES) observed 2330 UTC 28 January 2022
Temperature: 4.0°C (39°F)
Dewpoint: -2.0°C (28°F) [RH = 65%]
Pressure (altimeter): 30.50 inches Hg (1033.0 mb)
Winds: from the WNW (300 degrees) at 6 MPH (5 knots; 2.6 m/s)
Visibility: 6 or more miles (10+ km)
Ceiling: ceiling and visibility are OK
Clouds: unknown
Weather: no significant weather observed at this time

Forecast for: LEZG (ZARAGOZA (MIL/CI, ES)
Text: TAF LEZG 282300Z 2900/2924 27009KT CAVOK TX13/2914Z TNM01/2906Z
Forecast period: 0000 UTC 29 January 2022 to 0000 UTC 30 January 2022
Forecast type: FROM: standard forecast or significant change
Winds: from the W (270 degrees) at 10 MPH (9 knots; 4.6 m/s)
Visibility: 6 or more miles (10+ km)
Ceiling: unknown
Clouds: missing
Weather: no significant weather forecast for this period